createdAt,value
2022-08-18T00:01:33.514Z,10.38
2022-08-18T00:04:03.610Z,10.73
2022-08-18T00:06:35.644Z,10.82
2022-08-18T00:09:05.897Z,11.23
2022-08-18T00:11:41.196Z,10.30
2022-08-18T00:14:22.624Z,10.43
2022-08-18T00:16:52.674Z,10.35
2022-08-18T00:19:19.645Z,10.32
2022-08-18T00:21:46.410Z,10.57
2022-08-18T00:24:13.143Z,10.88
2022-08-18T00:26:39.914Z,9.98
2022-08-18T00:29:07.860Z,11.00
2022-08-18T00:31:34.908Z,11.20
2022-08-18T00:34:01.850Z,10.98
2022-08-18T00:36:28.985Z,10.80
2022-08-18T00:38:55.738Z,11.40
2022-08-18T00:41:26.731Z,11.40
2022-08-18T00:43:54.659Z,10.60
2022-08-18T00:46:25.433Z,10.77
2022-08-18T00:48:52.857Z,10.70
2022-08-18T00:51:42.199Z,10.60
2022-08-18T00:54:15.386Z,10.43
2022-08-18T00:56:46.196Z,10.02
2022-08-18T00:59:37.357Z,10.25
2022-08-18T01:02:10.528Z,9.65
2022-08-18T01:04:55.376Z,10.48
2022-08-18T01:07:37.761Z,9.80
2022-08-18T01:10:06.043Z,10.60
2022-08-18T01:12:44.895Z,9.73
2022-08-18T01:15:29.458Z,10.45
2022-08-18T01:18:23.131Z,9.95
2022-08-18T01:21:28.848Z,9.73
2022-08-18T01:23:57.271Z,10.00
2022-08-18T01:26:26.652Z,9.60
2022-08-18T01:28:54.112Z,9.60
2022-08-18T01:31:37.655Z,10.20
2022-08-18T01:34:06.468Z,9.88
2022-08-18T01:36:37.467Z,9.65
2022-08-18T01:39:06.884Z,9.63
2022-08-18T01:41:33.652Z,9.20
2022-08-18T01:44:01.781Z,9.57
2022-08-18T01:46:33.169Z,9.70
2022-08-18T01:49:01.133Z,9.50
2022-08-18T01:51:39.431Z,10.07
2022-08-18T01:54:08.384Z,10.07
2022-08-18T01:56:36.685Z,10.10
2022-08-18T01:59:04.054Z,9.23
2022-08-18T02:01:36.642Z,9.93
2022-08-18T02:04:33.218Z,9.40
2022-08-18T02:06:54.429Z,9.38
2022-08-18T02:09:23.897Z,9.18
2022-08-18T02:11:55.700Z,9.52
2022-08-18T02:14:25.317Z,9.20
2022-08-18T02:16:57.041Z,9.73
2022-08-18T02:19:36.598Z,9.02
2022-08-18T02:22:04.431Z,9.63
2022-08-18T02:24:31.277Z,9.13
2022-08-18T02:26:58.201Z,9.07
2022-08-18T02:29:25.039Z,9.45
2022-08-18T02:31:51.949Z,9.23
2022-08-18T02:34:18.793Z,8.30
2022-08-18T02:36:46.035Z,8.65
2022-08-18T02:39:13.212Z,8.18
2022-08-18T02:41:40.078Z,9.05
2022-08-18T02:44:08.142Z,8.65
2022-08-18T02:46:35.668Z,8.55
2022-08-18T02:49:03.404Z,9.18
2022-08-18T02:51:30.192Z,9.40
2022-08-18T02:54:00.728Z,9.30
2022-08-18T02:56:32.918Z,8.68
2022-08-18T02:59:14.966Z,9.10
2022-08-18T03:01:45.243Z,9.40
2022-08-18T03:04:15.868Z,9.20
2022-08-18T03:06:44.348Z,9.70
2022-08-18T03:09:14.817Z,10.05
2022-08-18T03:11:43.526Z,9.90
2022-08-18T03:14:11.413Z,10.38
2022-08-18T03:16:40.587Z,9.98
2022-08-18T03:19:25.689Z,9.80
2022-08-18T03:21:52.890Z,10.93
2022-08-18T03:24:22.642Z,10.13
2022-08-18T03:26:52.326Z,10.75
2022-08-18T03:29:20.374Z,9.93
2022-08-18T03:31:48.804Z,9.38
2022-08-18T03:34:19.671Z,9.82
2022-08-18T03:36:48.207Z,9.68
2022-08-18T03:39:15.093Z,9.98
2022-08-18T03:41:58.634Z,10.32
2022-08-18T03:44:30.473Z,9.57
2022-08-18T03:46:57.816Z,9.75
2022-08-18T03:49:26.097Z,9.73
2022-08-18T03:51:52.954Z,10.95
2022-08-18T03:54:19.846Z,10.73
2022-08-18T03:56:49.350Z,10.68
2022-08-18T03:59:22.034Z,10.40
2022-08-18T04:01:51.163Z,10.95
2022-08-18T04:04:21.494Z,10.63
2022-08-18T04:06:54.090Z,10.50
2022-08-18T04:09:22.968Z,10.90
2022-08-18T04:11:49.772Z,10.82
2022-08-18T04:14:24.318Z,11.13
2022-08-18T04:16:51.491Z,11.35
2022-08-18T04:19:26.712Z,12.75
2022-08-18T04:21:56.668Z,11.73
2022-08-18T04:24:24.095Z,13.48
2022-08-18T04:26:51.893Z,12.05
2022-08-18T04:29:21.494Z,12.43
2022-08-18T04:31:50.238Z,12.90
2022-08-18T04:34:17.618Z,12.88
2022-08-18T04:36:44.795Z,11.93
2022-08-18T04:39:13.161Z,12.25
2022-08-18T04:41:43.621Z,12.10
2022-08-18T04:44:12.225Z,12.60
2022-08-18T04:46:42.207Z,13.13
2022-08-18T04:49:11.123Z,12.90
2022-08-18T04:52:37.667Z,13.10
2022-08-18T04:54:28.844Z,13.43
2022-08-18T04:56:55.753Z,13.05
2022-08-18T04:59:22.541Z,13.10
2022-08-18T05:01:49.284Z,12.40
2022-08-18T05:04:17.590Z,13.43
2022-08-18T05:06:45.651Z,13.32
2022-08-18T05:09:16.342Z,12.85
2022-08-18T05:11:44.603Z,13.07
2022-08-18T05:14:11.979Z,13.35
2022-08-18T05:16:47.832Z,13.27
2022-08-18T05:19:26.053Z,13.75
2022-08-18T05:22:00.068Z,12.70
2022-08-18T05:24:34.230Z,14.15
2022-08-18T05:27:05.535Z,14.10
2022-08-18T05:29:41.947Z,13.27
2022-08-18T05:32:38.238Z,13.90
2022-08-18T05:35:16.345Z,13.68
2022-08-18T05:38:16.861Z,14.00
2022-08-18T05:40:46.239Z,14.18
2022-08-18T05:43:16.954Z,14.27
2022-08-18T05:45:44.134Z,13.90
2022-08-18T05:48:10.885Z,15.00
2022-08-18T05:50:38.836Z,14.70
2022-08-18T05:53:14.140Z,15.18
2022-08-18T05:56:19.964Z,14.50
2022-08-18T05:58:51.109Z,14.77
2022-08-18T06:01:28.577Z,15.30
2022-08-18T06:04:20.248Z,14.95
2022-08-18T06:06:49.312Z,13.73
2022-08-18T06:09:33.863Z,13.77
2022-08-18T06:12:22.594Z,15.18
2022-08-18T06:14:50.079Z,14.30
2022-08-18T06:17:39.754Z,14.63
2022-08-18T06:20:37.072Z,14.98
2022-08-18T06:23:31.916Z,15.05
2022-08-18T06:26:19.986Z,15.57
2022-08-18T06:29:08.998Z,16.38
2022-08-18T06:32:02.180Z,15.77
2022-08-18T06:34:40.749Z,15.63
2022-08-18T06:37:16.405Z,15.65
2022-08-18T06:39:51.653Z,15.57
2022-08-18T06:42:26.350Z,16.08
2022-08-18T06:44:59.190Z,17.73
2022-08-18T06:47:46.379Z,15.43
2022-08-18T06:50:34.998Z,17.02
2022-08-18T06:53:05.402Z,17.35
2022-08-18T06:55:39.701Z,16.70
2022-08-18T06:58:27.197Z,17.52
2022-08-18T07:00:54.998Z,17.15
2022-08-18T07:03:45.087Z,17.52
2022-08-18T07:06:23.679Z,16.90
2022-08-18T07:08:56.566Z,17.55
2022-08-18T07:11:25.592Z,19.05
2022-08-18T07:14:15.407Z,20.58
2022-08-18T07:16:59.811Z,19.50
2022-08-18T07:19:30.297Z,19.05
2022-08-18T07:22:09.085Z,19.75
2022-08-18T07:24:41.230Z,19.60
2022-08-18T07:27:19.876Z,19.35
2022-08-18T07:30:10.241Z,18.23
2022-08-18T07:32:48.365Z,19.42
2022-08-18T07:35:23.897Z,18.48
2022-08-18T07:37:56.811Z,19.23
2022-08-18T07:40:42.099Z,19.88
2022-08-18T07:43:16.971Z,19.65
2022-08-18T07:45:46.801Z,19.98
2022-08-18T07:48:37.083Z,19.98
2022-08-18T07:51:17.364Z,20.77
2022-08-18T07:54:00.486Z,19.65
2022-08-18T07:56:48.526Z,21.63
2022-08-18T07:59:41.266Z,20.95
2022-08-18T08:02:28.988Z,21.40
2022-08-18T08:05:14.682Z,22.55
2022-08-18T08:07:51.372Z,22.77
2022-08-18T08:10:36.271Z,23.17
2022-08-18T08:13:37.032Z,23.38
2022-08-18T08:16:03.988Z,24.15
2022-08-18T08:19:11.225Z,24.67
2022-08-18T08:21:53.822Z,25.25
2022-08-18T08:24:34.263Z,25.67
2022-08-18T08:27:12.959Z,25.65
2022-08-18T08:30:01.359Z,24.40
2022-08-18T08:32:44.233Z,25.55
2022-08-18T08:35:48.849Z,24.33
2022-08-18T08:38:43.051Z,25.60
2022-08-18T08:41:22.500Z,25.67
2022-08-18T08:44:02.459Z,26.85
2022-08-18T08:46:35.015Z,26.95
2022-08-18T08:49:27.650Z,27.02
2022-08-18T08:52:07.916Z,27.05
2022-08-18T08:54:45.166Z,25.77
2022-08-18T08:57:14.674Z,26.48
2022-08-18T08:59:45.615Z,25.10
2022-08-18T09:02:27.083Z,24.85
2022-08-18T09:05:20.840Z,26.52
2022-08-18T09:08:00.660Z,24.88
2022-08-18T09:10:46.436Z,25.30
2022-08-18T09:13:44.163Z,24.75
2022-08-18T09:16:45.427Z,26.25
2022-08-18T09:19:26.920Z,24.55
2022-08-18T09:22:13.593Z,25.00
2022-08-18T09:24:46.511Z,23.60
2022-08-18T09:27:53.770Z,23.60
2022-08-18T09:30:49.209Z,22.00
2022-08-18T09:33:38.499Z,22.15
2022-08-18T09:43:20.161Z,21.05
2022-08-18T09:46:06.159Z,20.98
2022-08-18T09:48:43.206Z,21.70
2022-08-18T09:51:17.491Z,20.77
2022-08-18T09:53:47.955Z,19.60
2022-08-18T09:56:19.854Z,21.27
2022-08-18T09:59:02.910Z,22.08
2022-08-18T10:01:40.778Z,20.05
2022-08-18T10:04:29.732Z,21.10
2022-08-18T10:07:43.482Z,22.00
2022-08-18T10:11:01.608Z,20.88
2022-08-18T10:14:04.473Z,19.52
2022-08-18T10:20:25.771Z,21.52
2022-08-18T10:22:55.491Z,20.65
2022-08-18T10:28:55.497Z,19.83
2022-08-18T10:34:19.189Z,21.50
2022-08-18T10:36:59.072Z,20.73
2022-08-18T10:42:37.362Z,22.17
2022-08-18T10:45:10.515Z,19.63
2022-08-18T10:47:38.617Z,20.10
2022-08-18T10:50:19.729Z,21.42
2022-08-18T10:56:10.686Z,21.05
2022-08-18T10:58:58.298Z,21.55
2022-08-18T11:01:40.505Z,20.27
2022-08-18T11:04:27.509Z,22.10
2022-08-18T11:07:07.930Z,22.05
2022-08-18T11:09:35.185Z,21.40
2022-08-18T11:12:08.949Z,21.42
2022-08-18T11:18:42.628Z,20.98
2022-08-18T11:21:42.065Z,21.20
2022-08-18T11:24:31.379Z,20.20
2022-08-18T11:27:19.555Z,18.55
2022-08-18T11:29:51.371Z,19.60
2022-08-18T11:32:32.156Z,19.23
2022-08-18T11:34:59.479Z,17.73
2022-08-18T11:37:51.239Z,18.95
2022-08-18T11:41:02.193Z,17.92
2022-08-18T11:43:24.405Z,16.77
2022-08-18T11:45:53.985Z,16.95
2022-08-18T11:48:51.911Z,15.80
2022-08-18T11:51:27.065Z,14.13
2022-08-18T11:57:59.138Z,12.45
2022-08-18T12:01:03.111Z,13.40
2022-08-18T12:03:46.691Z,13.25
2022-08-18T12:09:45.505Z,12.05
2022-08-18T12:12:23.520Z,13.93
2022-08-18T12:15:24.545Z,13.23
2022-08-18T12:20:43.084Z,12.73
2022-08-18T12:23:11.367Z,14.20
2022-08-18T12:25:39.561Z,13.38
2022-08-18T12:28:10.875Z,14.07
2022-08-18T12:30:37.989Z,13.38
2022-08-18T12:33:10.500Z,13.23
2022-08-18T12:35:41.949Z,12.13
2022-08-18T12:38:13.846Z,11.90
2022-08-18T12:40:43.059Z,11.93
2022-08-18T12:43:10.523Z,11.02
2022-08-18T12:45:39.098Z,11.55
2022-08-18T12:48:07.156Z,11.70
2022-08-18T12:50:42.693Z,11.65
2022-08-18T12:53:30.254Z,11.32
2022-08-18T12:56:19.721Z,11.90
2022-08-18T12:58:47.178Z,11.90
2022-08-18T13:01:14.173Z,11.45
2022-08-18T13:03:45.593Z,11.68
2022-08-18T13:06:33.703Z,11.95
2022-08-18T13:09:00.928Z,11.95
2022-08-18T13:11:28.099Z,13.02
2022-08-18T13:13:57.151Z,12.48
2022-08-18T13:16:30.826Z,12.43
2022-08-18T13:19:08.153Z,12.30
2022-08-18T13:21:41.208Z,12.98
2022-08-18T13:24:09.362Z,13.55
2022-08-18T13:26:41.921Z,13.38
2022-08-18T13:29:10.266Z,12.38
2022-08-18T13:31:38.321Z,11.75
2022-08-18T13:34:11.651Z,12.15
2022-08-18T13:36:45.999Z,11.98
2022-08-18T13:39:15.325Z,11.90
2022-08-18T13:41:43.341Z,12.68
2022-08-18T13:44:13.285Z,12.52
2022-08-18T13:46:46.944Z,12.30
2022-08-18T13:49:23.745Z,12.10
2022-08-18T13:52:03.307Z,12.38
2022-08-18T13:54:35.475Z,12.30
2022-08-18T13:57:03.392Z,11.90
2022-08-18T13:59:33.160Z,12.40
2022-08-18T14:02:03.171Z,11.90
2022-08-18T14:04:30.070Z,12.40
2022-08-18T14:06:58.718Z,11.02
2022-08-18T14:09:36.902Z,10.93
2022-08-18T14:12:22.927Z,11.27
2022-08-18T14:14:53.438Z,11.93
2022-08-18T14:17:22.935Z,11.77
2022-08-18T14:20:21.143Z,11.57
2022-08-18T14:23:09.922Z,11.07
2022-08-18T14:25:56.053Z,11.80
2022-08-18T14:28:24.919Z,11.98
2022-08-18T14:30:54.702Z,11.82
2022-08-18T14:33:49.384Z,11.27
2022-08-18T14:36:10.188Z,11.32
2022-08-18T14:38:37.016Z,11.95
2022-08-18T14:41:07.436Z,11.68
2022-08-18T14:44:11.585Z,11.52
2022-08-18T14:46:23.630Z,12.02
2022-08-18T14:48:57.394Z,11.88
2022-08-18T14:51:31.705Z,11.98
2022-08-18T14:54:01.156Z,12.00
2022-08-18T14:56:29.669Z,10.93
2022-08-18T14:58:59.891Z,11.63
2022-08-18T15:01:27.564Z,11.82
2022-08-18T15:03:55.043Z,12.38
2022-08-18T15:06:23.051Z,11.18
2022-08-18T15:08:54.082Z,11.60
2022-08-18T15:11:23.225Z,11.25
2022-08-18T15:13:51.599Z,10.70
2022-08-18T15:16:27.106Z,10.85
2022-08-18T15:18:59.607Z,11.13
2022-08-18T15:21:46.894Z,11.68
2022-08-18T15:24:39.666Z,11.50
2022-08-18T15:27:10.219Z,11.80
2022-08-18T15:29:41.485Z,11.43
2022-08-18T15:32:10.711Z,12.00
2022-08-18T15:34:46.107Z,12.00
2022-08-18T15:37:15.916Z,12.65
2022-08-18T15:39:46.489Z,13.32
2022-08-18T15:42:19.270Z,12.38
2022-08-18T15:44:47.295Z,13.05
2022-08-18T15:47:20.732Z,12.63
2022-08-18T15:49:48.431Z,12.57
2022-08-18T15:52:17.652Z,12.13
2022-08-18T15:54:50.449Z,12.75
2022-08-18T15:57:39.850Z,13.20
2022-08-18T16:00:05.932Z,12.50
2022-08-18T16:02:33.697Z,12.75
2022-08-18T16:05:10.274Z,11.93
2022-08-18T16:07:53.546Z,11.98
2022-08-18T16:10:22.561Z,13.07
2022-08-18T16:12:51.140Z,12.32
2022-08-18T16:15:21.459Z,12.38
2022-08-18T16:17:50.748Z,13.07
2022-08-18T16:20:19.081Z,12.73
2022-08-18T16:22:47.317Z,11.90
2022-08-18T16:25:17.166Z,13.05
2022-08-18T16:27:44.371Z,12.60
2022-08-18T16:30:14.491Z,13.07
2022-08-18T16:32:41.396Z,12.77
2022-08-18T16:35:09.005Z,12.88
2022-08-18T16:37:35.983Z,11.85
2022-08-18T16:40:03.896Z,12.88
2022-08-18T16:42:32.629Z,13.57
2022-08-18T16:45:00.830Z,13.65
2022-08-18T16:47:28.231Z,12.68
2022-08-18T16:49:58.443Z,12.35
2022-08-18T16:52:27.045Z,11.73
2022-08-18T16:54:57.355Z,11.55
2022-08-18T16:57:55.140Z,12.27
2022-08-18T17:00:42.056Z,11.73
2022-08-18T17:03:28.574Z,12.88
2022-08-18T17:06:21.641Z,13.02
2022-08-18T17:08:48.388Z,12.63
2022-08-18T17:11:18.110Z,12.95
2022-08-18T17:13:46.866Z,13.52
2022-08-18T17:16:14.715Z,12.45
2022-08-18T17:18:42.534Z,12.63
2022-08-18T17:21:12.143Z,12.43
2022-08-18T17:23:39.851Z,12.68
2022-08-18T17:26:27.723Z,13.40
2022-08-18T17:29:06.629Z,13.02
2022-08-18T17:31:34.942Z,13.73
2022-08-18T17:34:07.358Z,13.00
2022-08-18T17:36:42.215Z,13.02
2022-08-18T17:39:24.307Z,13.93
2022-08-18T17:42:09.599Z,12.98
2022-08-18T17:44:46.291Z,13.55
2022-08-18T17:47:26.774Z,13.70
2022-08-18T17:50:28.056Z,13.35
2022-08-18T17:53:05.244Z,13.43
2022-08-18T17:55:41.556Z,12.60
2022-08-18T17:58:50.627Z,13.15
2022-08-18T18:01:17.429Z,13.90
2022-08-18T18:03:44.751Z,13.73
2022-08-18T18:06:31.565Z,14.32
2022-08-18T18:09:01.277Z,14.45
2022-08-18T18:11:35.175Z,13.10
2022-08-18T18:14:24.197Z,13.65
2022-08-18T18:17:07.174Z,14.13
2022-08-18T18:19:35.226Z,13.73
2022-08-18T18:22:17.626Z,13.98
2022-08-18T18:25:04.680Z,14.27
2022-08-18T18:27:50.550Z,14.25
2022-08-18T18:30:27.407Z,13.25
2022-08-18T18:33:03.049Z,13.35
2022-08-18T18:35:54.520Z,13.75
2022-08-18T18:38:38.034Z,13.55
2022-08-18T18:41:27.181Z,13.95
2022-08-18T18:44:09.541Z,14.02
2022-08-18T18:46:46.979Z,13.45
2022-08-18T18:49:18.191Z,12.95
2022-08-18T18:52:25.540Z,14.07
2022-08-18T18:55:03.604Z,14.40
2022-08-18T18:57:41.369Z,13.63
2022-08-18T19:00:21.174Z,13.38
2022-08-18T19:02:58.183Z,13.48
2022-08-18T19:05:31.110Z,13.50
2022-08-18T19:08:28.400Z,13.73
2022-08-18T19:11:22.427Z,14.15
2022-08-18T19:13:57.483Z,13.23
2022-08-18T19:16:29.292Z,13.35
2022-08-18T19:19:37.738Z,12.90
2022-08-18T19:22:08.863Z,13.85
2022-08-18T19:24:42.585Z,14.48
2022-08-18T19:27:23.213Z,13.43
2022-08-18T19:29:54.533Z,13.80
2022-08-18T19:32:36.747Z,12.52
2022-08-18T19:35:12.334Z,13.20
2022-08-18T19:38:00.710Z,13.23
2022-08-18T19:40:52.489Z,12.68
2022-08-18T19:44:03.072Z,12.43
2022-08-18T19:46:38.111Z,13.70
2022-08-18T19:49:58.418Z,13.77
2022-08-18T19:52:46.474Z,13.90
2022-08-18T19:55:28.241Z,13.75
2022-08-18T19:58:10.994Z,13.55
2022-08-18T20:00:53.553Z,13.77
2022-08-18T20:03:51.527Z,13.38
2022-08-18T20:06:35.900Z,13.18
2022-08-18T20:09:47.604Z,13.13
2022-08-18T20:12:43.017Z,14.15
2022-08-18T20:15:19.318Z,13.48
2022-08-18T20:17:58.406Z,13.77
2022-08-18T20:20:29.508Z,13.90
2022-08-18T20:22:58.696Z,13.88
2022-08-18T20:25:25.409Z,14.43
2022-08-18T20:27:58.376Z,14.43
2022-08-18T20:30:34.075Z,14.80
2022-08-18T20:33:29.061Z,13.95
2022-08-18T20:36:17.729Z,13.90
2022-08-18T20:38:50.879Z,15.25
2022-08-18T20:41:23.631Z,14.40
2022-08-18T20:44:05.984Z,15.07
2022-08-18T20:46:47.364Z,14.25
2022-08-18T20:49:47.580Z,14.50
2022-08-18T20:53:00.640Z,14.90
2022-08-18T20:55:56.367Z,14.60
2022-08-18T20:58:32.114Z,15.35
2022-08-18T21:01:00.172Z,15.68
2022-08-18T21:03:39.008Z,14.75
2022-08-18T21:06:06.958Z,15.57
2022-08-18T21:08:36.070Z,15.65
2022-08-18T21:11:06.512Z,14.60
2022-08-18T21:13:40.697Z,17.02
2022-08-18T21:16:08.635Z,16.33
2022-08-18T21:18:35.506Z,16.67
2022-08-18T21:21:08.762Z,17.02
2022-08-18T21:23:39.289Z,15.90
2022-08-18T21:26:13.648Z,15.57
2022-08-18T21:28:44.971Z,16.13
2022-08-18T21:31:43.807Z,15.35
2022-08-18T21:34:33.246Z,16.02
2022-08-18T21:37:05.860Z,15.77
2022-08-18T21:39:32.599Z,15.60
2022-08-18T21:41:59.573Z,16.25
2022-08-18T21:44:32.542Z,16.42
2022-08-18T21:47:06.611Z,16.98
2022-08-18T21:49:33.896Z,16.40
2022-08-18T21:52:01.192Z,17.30
2022-08-18T21:54:34.361Z,17.52
2022-08-18T21:57:28.297Z,17.98
2022-08-18T22:00:38.823Z,17.00
2022-08-18T22:03:10.839Z,17.38
2022-08-18T22:05:59.057Z,19.00
2022-08-18T22:08:29.394Z,18.67
2022-08-18T22:11:41.789Z,18.13
2022-08-18T22:14:54.392Z,18.42
2022-08-18T22:17:27.142Z,17.77
2022-08-18T22:19:54.640Z,19.27
2022-08-18T22:22:41.318Z,19.88
2022-08-18T22:25:12.061Z,19.40
2022-08-18T22:27:40.091Z,20.05
2022-08-18T22:30:07.212Z,20.00
2022-08-18T22:32:38.680Z,19.30
2022-08-18T22:35:07.311Z,19.85
2022-08-18T22:37:42.588Z,19.45
2022-08-18T22:40:14.002Z,19.42
2022-08-18T22:42:41.810Z,19.85
2022-08-18T22:45:13.442Z,19.95
2022-08-18T22:47:43.751Z,19.80
2022-08-18T22:50:13.174Z,19.63
2022-08-18T22:52:48.198Z,20.02
2022-08-18T22:55:22.098Z,18.58
2022-08-18T22:57:56.069Z,19.40
2022-08-18T23:00:25.216Z,19.20
2022-08-18T23:02:52.764Z,19.13
2022-08-18T23:05:19.693Z,18.52
2022-08-18T23:07:49.951Z,19.85
2022-08-18T23:10:17.300Z,20.10
2022-08-18T23:12:46.761Z,19.77
2022-08-18T23:15:15.733Z,19.75
2022-08-18T23:17:43.721Z,20.38
2022-08-18T23:20:18.240Z,19.67
2022-08-18T23:22:47.604Z,19.00
2022-08-18T23:25:15.097Z,20.30
2022-08-18T23:27:42.822Z,19.50
2022-08-18T23:30:10.219Z,19.52
2022-08-18T23:32:36.912Z,19.55
2022-08-18T23:35:04.109Z,20.23
2022-08-18T23:37:31.669Z,19.35
2022-08-18T23:39:58.869Z,19.52
2022-08-18T23:42:25.770Z,19.70
2022-08-18T23:44:52.450Z,19.58
2022-08-18T23:47:20.615Z,20.25
2022-08-18T23:49:47.466Z,20.08
2022-08-18T23:52:14.205Z,20.50
2022-08-18T23:54:41.021Z,20.65
2022-08-18T23:57:07.801Z,20.02
2022-08-18T23:59:34.534Z,19.52
